This is the latest recevied weather packets stored in our database for station/object W6UA-13. If no packets are shown the sender has not sent any weather packets the latest 10 day(s).
| Time | Temp. | Humidity | Pressure | Rain* | Wind** | Luminosity | Snow |
|---|---|---|---|---|---|---|---|
| 1777775685 | 13.89° C | 77% | 1011.7 hPa | 0 mm | - | 7 W/m² | - |
| 1777761286 | 19.44° C | 61% | 1013.3 hPa | 0 mm | - | 415 W/m² | - |
| 1777760386 | 18.89° C | 62% | 1013.7 hPa | 0 mm | - | 756 W/m² | - |
| 1777759486 | 19.44° C | 61% | 1013.8 hPa | 0 mm | - | 791 W/m² | - |
| 1777758586 | 18.89° C | 63% | 1014.1 hPa | 0 mm | - | 812 W/m² | - |
| 1777757686 | 18.89° C | 63% | 1014.3 hPa | 0 mm | - | 828 W/m² | - |
| 1777756786 | 18.89° C | 64% | 1014.6 hPa | 0 mm | - | 1035 W/m² | - |
| 1777755910 | 12.78° C | 85% | 1014.8 hPa | 0 mm | - | 128 W/m² | - |
| 1777755886 | 18.33° C | 65% | 1014.8 hPa | 0 mm | - | 626 W/m² | - |
| 1777754986 | 18.33° C | 66% | 1014.8 hPa | 0 mm | - | 446 W/m² | - |
| 1777753186 | 18.33° C | 68% | 1014.9 hPa | 0 mm | - | 631 W/m² | - |
| 1777752286 | 17.22° C | 70% | 1015.2 hPa | 0 mm | - | 714 W/m² | - |
| 1777750486 | 17.22° C | 70% | 1015.4 hPa | 0 mm | - | 503 W/m² | - |
| 1777749586 | 17.22° C | 71% | 1015.3 hPa | 0 mm | - | 524 W/m² | - |
| 1777748686 | 16.11° C | 73% | 1015.4 hPa | 0 mm | - | 468 W/m² | - |
| 1777746886 | 15° C | 77% | 1015.6 hPa | 0 mm | - | 316 W/m² | - |
| 1777745986 | 15° C | 78% | 1015.6 hPa | 0 mm | - | 290 W/m² | - |
| 1777743286 | 13.33° C | 81% | 1015.4 hPa | 0 mm | - | 155 W/m² | - |
| 1777741486 | 13.33° C | 82% | 1015.4 hPa | 0 mm | - | 109 W/m² | - |
| 1777739686 | 13.33° C | 83% | 1014.9 hPa | 0 mm | - | 118 W/m² | - |
| 1777738786 | 13.33° C | 84% | 1014.9 hPa | 0 mm | - | 142 W/m² | - |
| 1777737886 | 12.78° C | 85% | 1014.8 hPa | 0 mm | - | 128 W/m² | - |
| 1777736986 | 12.78° C | 86% | 1014.8 hPa | 0 mm | - | 100 W/m² | - |
| 1777736086 | 12.78° C | 87% | 1014.8 hPa | 0 mm | - | 74 W/m² | - |
| 1777735186 | 12.22° C | 88% | 1014.6 hPa | 0 mm | - | 91 W/m² | - |
* Rain latest hour (hover to see other rain measurements)
** Current wind speed in m/s (hover to see current wind gust speed)